Time;durP1;ratioP1;P1;durP2;ratioP2;P2;SDS_P1;SDS_P2;PMS_P1;PMS_P2;Temp;Humidity;BMP_temperature;BMP_pressure;BME280_temperature;BME280_humidity;BME280_pressure;Samples;Min_cycle;Max_cycle;Signal;HPM_P1;HPM_P2
2023/07/26 00:00:53;;;;;;;4.35;3.33;;;;;;;26.96;63.72;98511.53;4964089;28;20096;-94
2023/07/26 00:03:19;;;;;;;3.03;2.20;;;;;;;27.11;63.58;98528.91;4958083;28;20038;-94
2023/07/26 00:05:44;;;;;;;4.25;3.10;;;;;;;27.17;63.13;98549.06;4968167;28;20429;-94
2023/07/26 00:08:10;;;;;;;3.33;1.70;;;;;;;27.24;63.42;98546.59;4968246;28;20102;-93
2023/07/26 00:10:36;;;;;;;15.30;2.60;;;;;;;26.98;63.66;98510.38;4971504;28;20039;-96
2023/07/26 00:13:02;;;;;;;5.40;3.08;;;;;;;27.23;62.91;98534.91;4993306;28;20019;-96
2023/07/26 00:15:28;;;;;;;4.43;2.35;;;;;;;27.29;62.69;98533.44;4993575;28;20053;-95
2023/07/26 00:17:53;;;;;;;5.07;2.70;;;;;;;27.22;62.66;98521.53;4975301;28;20032;-95
2023/07/26 00:20:20;;;;;;;2.03;1.35;;;;;;;27.05;63.60;98512.44;4958219;28;20019;-95
2023/07/26 00:22:46;;;;;;;6.28;3.60;;;;;;;26.59;64.73;98480.09;4958175;29;20032;-93
2023/07/26 00:25:11;;;;;;;5.30;2.00;;;;;;;26.50;65.38;98494.53;4983612;28;20062;-95
2023/07/26 00:27:37;;;;;;;4.63;3.40;;;;;;;26.68;65.85;98532.41;4934491;29;20039;-94
2023/07/26 00:30:02;;;;;;;4.78;3.20;;;;;;;26.50;65.33;98494.53;4983262;28;20034;-95
2023/07/26 00:32:29;;;;;;;3.40;2.65;;;;;;;26.50;65.51;98502.66;4953404;28;20093;-94
2023/07/26 00:34:54;;;;;;;4.93;3.08;;;;;;;26.41;66.03;98493.59;4970675;28;20144;-94
2023/07/26 00:37:20;;;;;;;3.05;2.53;;;;;;;26.45;65.83;98512.06;4987546;28;20035;-93
2023/07/26 00:39:45;;;;;;;3.70;2.25;;;;;;;26.49;65.50;98499.06;4963865;28;20110;-93
2023/07/26 00:42:14;;;;;;;3.38;1.83;;;;;;;26.42;65.58;98495.28;4967865;28;20123;-94
2023/07/26 00:44:39;;;;;;;4.03;2.88;;;;;;;26.27;65.92;98486.84;4951670;28;20042;-94
2023/07/26 00:47:05;;;;;;;23.80;4.10;;;;;;;26.18;66.29;98491.34;4951439;28;20035;-93
2023/07/26 00:49:31;;;;;;;7.18;3.28;;;;;;;26.07;66.98;98488.84;4953359;28;20125;-94
2023/07/26 00:52:04;;;;;;;5.25;3.20;;;;;;;26.04;67.30;98522.44;4951106;28;20042;-94
2023/07/26 00:54:29;;;;;;;8.52;2.25;;;;;;;25.64;67.10;98468.69;4952792;28;20036;-94
2023/07/26 00:56:55;;;;;;;6.40;2.67;;;;;;;25.43;67.55;98467.06;4952315;28;20035;-93
2023/07/26 00:59:21;;;;;;;5.60;2.10;;;;;;;25.64;67.73;98507.38;4970667;28;20062;-93
2023/07/26 01:01:46;;;;;;;5.35;3.38;;;;;;;25.66;67.34;98481.06;4980981;28;20039;-93
2023/07/26 01:04:12;;;;;;;5.43;3.47;;;;;;;25.54;67.21;98464.19;4967090;28;20061;-93
2023/07/26 01:06:56;;;;;;;5.57;2.55;;;;;;;25.89;66.48;98499.56;4952125;28;20042;-93
2023/07/26 01:09:35;;;;;;;3.08;2.08;;;;;;;25.79;65.93;98455.56;4952576;28;20449;-93
2023/07/26 01:12:18;;;;;;;7.57;2.20;;;;;;;25.94;65.89;98456.75;4967298;28;20039;-92
2023/07/26 01:14:53;;;;;;;3.40;2.20;;;;;;;25.95;65.50;98465.69;4974893;28;20034;-93
2023/07/26 01:17:18;;;;;;;4.57;2.78;;;;;;;25.95;65.53;98463.88;4971703;28;20501;-93
2023/07/26 01:19:44;;;;;;;4.88;2.72;;;;;;;25.88;65.69;98455.50;4970338;28;20118;-93
2023/07/26 01:22:09;;;;;;;5.65;2.92;;;;;;;26.03;65.34;98472.09;4965942;28;20031;-92
2023/07/26 01:24:36;;;;;;;4.95;1.98;;;;;;;26.01;65.34;98468.69;4937458;29;20106;-92
2023/07/26 01:27:02;;;;;;;4.93;1.88;;;;;;;26.24;65.36;98493.44;4944350;29;20035;-92
2023/07/26 01:29:28;;;;;;;5.15;2.75;;;;;;;26.30;64.81;98480.31;4983763;28;20489;-91
2023/07/26 01:31:54;;;;;;;3.35;2.42;;;;;;;26.40;64.36;98500.00;4959557;28;20046;-91
2023/07/26 01:34:20;;;;;;;6.72;2.15;;;;;;;26.13;64.69;98463.91;4970916;28;20031;-91
2023/07/26 01:36:46;;;;;;;5.82;3.08;;;;;;;26.34;63.92;98479.00;4970769;28;20057;-91
2023/07/26 01:39:12;;;;;;;4.07;2.45;;;;;;;26.23;63.98;98485.47;4955878;28;20039;-91
2023/07/26 01:41:39;;;;;;;5.35;3.42;;;;;;;26.32;63.63;98491.81;4970598;28;20043;-93
2023/07/26 01:44:04;;;;;;;4.13;2.47;;;;;;;26.14;63.96;98484.53;4970824;28;20039;-93
2023/07/26 01:46:30;;;;;;;4.53;2.03;;;;;;;26.17;64.33;98494.19;4955007;28;20409;-96
2023/07/26 01:48:55;;;;;;;4.93;2.70;;;;;;;26.25;64.06;98505.09;4971117;28;20094;-93
2023/07/26 01:51:21;;;;;;;3.05;2.75;;;;;;;25.98;65.37;98498.72;4955850;28;20035;-92
2023/07/26 01:53:51;;;;;;;4.32;2.35;;;;;;;25.98;65.11;98487.03;4956304;29;20046;-93
2023/07/26 01:56:16;;;;;;;2.40;1.85;;;;;;;26.18;65.34;98512.09;4955723;28;20067;-93
2023/07/26 01:58:42;;;;;;;4.50;3.15;;;;;;;26.01;65.11;98493.00;4953902;28;20031;-93
2023/07/26 02:01:07;;;;;;;6.25;2.63;;;;;;;25.92;66.09;98501.97;4974989;28;20062;-93
2023/07/26 02:03:33;;;;;;;3.92;2.75;;;;;;;26.14;66.32;98529.63;4989785;28;20085;-92
2023/07/26 02:05:58;;;;;;;3.13;2.50;;;;;;;25.60;67.14;98484.34;4990382;28;20030;-92
2023/07/26 02:08:24;;;;;;;10.20;2.67;;;;;;;25.72;67.50;98515.56;4989870;28;20035;-93
2023/07/26 02:10:49;;;;;;;4.72;2.33;;;;;;;25.60;67.85;98495.16;4972978;28;20039;-92
2023/07/26 02:13:15;;;;;;;5.20;2.65;;;;;;;25.66;67.29;98482.91;4975115;28;20030;-94
2023/07/26 02:15:41;;;;;;;8.27;3.00;;;;;;;25.61;68.21;98502.25;4973920;28;20045;-92
2023/07/26 02:18:06;;;;;;;5.93;3.17;;;;;;;25.74;67.77;98507.31;4955638;28;20525;-92
2023/07/26 02:20:32;;;;;;;8.30;4.00;;;;;;;25.47;68.79;98491.91;4954835;28;20489;-92
2023/07/26 02:22:58;;;;;;;6.45;2.55;;;;;;;25.47;69.05;98529.72;4954184;28;20475;-92
2023/07/26 02:25:24;;;;;;;2.95;2.03;;;;;;;25.42;68.75;98502.31;4953817;28;20121;-92
2023/07/26 02:27:50;;;;;;;4.40;2.65;;;;;;;25.46;69.11;98536.13;4955444;29;20409;-92
2023/07/26 02:30:15;;;;;;;4.57;2.50;;;;;;;25.22;69.07;98485.28;4970647;28;20435;-93
2023/07/26 02:32:41;;;;;;;4.25;2.40;;;;;;;25.18;69.86;98509.88;4989417;28;20038;-93
2023/07/26 02:35:08;;;;;;;5.00;3.17;;;;;;;25.36;70.37;98523.50;4964464;28;20062;-91
2023/07/26 02:37:34;;;;;;;5.85;3.05;;;;;;;25.27;71.21;98540.53;4973072;28;20038;-92
2023/07/26 02:40:01;;;;;;;3.80;2.17;;;;;;;25.09;71.10;98523.38;4974710;28;20417;-92
2023/07/26 02:42:27;;;;;;;3.35;2.45;;;;;;;24.88;70.86;98485.78;4993810;28;20050;-93
2023/07/26 02:44:54;;;;;;;6.57;2.28;;;;;;;25.12;70.21;98525.78;4977213;28;20034;-93
2023/07/26 02:47:20;;;;;;;6.75;3.30;;;;;;;24.93;70.01;98495.16;4972723;28;20022;-93
2023/07/26 02:49:45;;;;;;;5.68;3.47;;;;;;;25.18;70.05;98539.53;4966188;28;20039;-93
2023/07/26 02:52:11;;;;;;;4.03;2.80;;;;;;;25.06;69.70;98513.72;4972601;28;20035;-91
2023/07/26 02:54:38;;;;;;;3.17;2.30;;;;;;;24.83;70.70;98505.09;4974980;28;20096;-92
2023/07/26 02:57:04;;;;;;;3.85;2.45;;;;;;;25.13;69.87;98528.34;4984050;28;20089;-95
2023/07/26 02:59:29;;;;;;;4.20;2.80;;;;;;;25.13;69.51;98532.88;4972796;28;20136;-95
2023/07/26 03:01:56;;;;;;;6.20;3.58;;;;;;;24.94;70.16;98525.66;4972883;28;20550;-95
2023/07/26 03:04:22;;;;;;;7.57;3.17;;;;;;;24.59;71.18;98495.59;4972826;28;20038;-94
2023/07/26 03:06:50;;;;;;;4.10;2.75;;;;;;;24.84;70.82;98517.59;4972897;28;20030;-94
2023/07/26 03:09:16;;;;;;;4.53;2.95;;;;;;;24.85;70.46;98500.38;4974301;28;20039;-96
2023/07/26 03:11:43;;;;;;;5.10;2.70;;;;;;;24.83;70.15;98475.41;4976472;28;20042;-92
2023/07/26 03:14:08;;;;;;;9.45;4.35;;;;;;;25.28;69.78;98541.38;4967600;28;20039;-92
2023/07/26 03:16:34;;;;;;;4.00;2.10;;;;;;;25.17;69.52;98524.34;4973351;28;20038;-87
2023/07/26 03:18:59;;;;;;;5.40;3.63;;;;;;;24.98;69.31;98505.50;4964859;28;20039;-88
2023/07/26 03:21:25;;;;;;;3.85;2.55;;;;;;;24.83;69.50;98470.03;4953203;28;20039;-92
2023/07/26 03:23:51;;;;;;;4.15;3.17;;;;;;;25.24;69.00;98535.44;4955227;28;20043;-91
2023/07/26 03:26:16;;;;;;;5.80;2.78;;;;;;;25.01;69.30;98494.44;4954647;28;20082;-89
2023/07/26 03:28:42;;;;;;;6.70;3.20;;;;;;;25.08;69.23;98510.88;4972160;28;20034;-90
2023/07/26 03:31:07;;;;;;;4.80;2.63;;;;;;;25.06;69.33;98505.63;4984407;28;20096;-89
2023/07/26 03:33:33;;;;;;;3.42;2.75;;;;;;;25.17;68.33;98497.34;4991988;28;20022;-91
2023/07/26 03:35:58;;;;;;;4.65;3.58;;;;;;;25.25;68.16;98520.91;4991605;28;20567;-92
2023/07/26 03:38:24;;;;;;;4.40;2.30;;;;;;;25.26;67.78;98502.91;4976213;28;20085;-92
2023/07/26 03:40:49;;;;;;;3.50;2.40;;;;;;;25.33;68.21;98520.22;4971135;28;20504;-83
2023/07/26 03:43:15;;;;;;;4.03;3.30;;;;;;;25.35;67.29;98489.41;4970551;28;20511;-88
2023/07/26 03:45:40;;;;;;;4.32;3.10;;;;;;;25.34;67.22;98498.50;4971543;28;20468;-88
2023/07/26 03:48:06;;;;;;;3.55;2.42;;;;;;;25.40;67.29;98488.97;4968705;28;20074;-89
2023/07/26 03:50:33;;;;;;;5.82;2.97;;;;;;;25.46;67.24;98492.94;4970650;28;20089;-89
2023/07/26 03:52:58;;;;;;;3.00;2.20;;;;;;;25.27;66.53;98478.47;4971974;28;20034;-91
2023/07/26 03:55:24;;;;;;;5.50;3.47;;;;;;;25.31;66.62;98482.59;4958925;28;20190;-89
2023/07/26 03:57:49;;;;;;;5.53;2.53;;;;;;;25.41;66.41;98489.81;4950425;28;20047;-90
2023/07/26 04:00:15;;;;;;;4.90;3.13;;;;;;;25.27;66.71;98486.56;4966126;28;20037;-91
2023/07/26 04:02:40;;;;;;;6.97;4.03;;;;;;;25.00;67.27;98461.19;4972398;28;20035;-90
2023/07/26 04:05:06;;;;;;;6.05;3.65;;;;;;;25.02;67.35;98472.69;4963528;28;20098;-89
2023/07/26 04:07:35;;;;;;;5.97;3.20;;;;;;;25.04;67.19;98453.69;4963792;28;20063;-89
2023/07/26 04:10:01;;;;;;;6.47;3.45;;;;;;;25.41;66.65;98492.50;4963117;28;20031;-89
2023/07/26 04:12:26;;;;;;;7.68;2.35;;;;;;;25.52;66.19;98495.88;4970424;28;20398;-88
2023/07/26 04:14:51;;;;;;;4.60;1.60;;;;;;;25.40;65.80;98475.47;4970979;28;20493;-89
2023/07/26 04:17:17;;;;;;;4.90;2.35;;;;;;;25.35;65.74;98469.66;4979012;28;20382;-88
2023/07/26 04:19:43;;;;;;;3.63;2.42;;;;;;;25.65;65.46;98510.91;4980091;28;20035;-88
2023/07/26 04:22:08;;;;;;;4.78;2.67;;;;;;;25.62;65.01;98479.63;4973970;28;20023;-90
2023/07/26 04:24:34;;;;;;;5.03;2.45;;;;;;;25.74;64.33;98491.94;4969955;28;20031;-90
2023/07/26 04:27:00;;;;;;;5.72;2.50;;;;;;;25.96;64.31;98508.75;4971965;28;20037;-88
2023/07/26 04:29:25;;;;;;;4.00;2.58;;;;;;;26.02;64.22;98502.78;4971498;28;20038;-89
2023/07/26 04:31:51;;;;;;;3.60;2.38;;;;;;;25.56;64.17;98450.53;4970968;28;20381;-90
2023/07/26 04:34:16;;;;;;;2.92;1.65;;;;;;;25.41;65.11;98465.50;4971209;28;20049;-89
2023/07/26 04:36:42;;;;;;;3.78;2.70;;;;;;;25.36;65.24;98466.81;4971369;28;20031;-94
2023/07/26 04:39:08;;;;;;;5.47;2.92;;;;;;;25.27;65.05;98445.22;4941862;28;20046;-90
2023/07/26 04:41:33;;;;;;;4.43;2.78;;;;;;;25.55;64.19;98475.84;4972042;28;20038;-88
2023/07/26 04:43:58;;;;;;;3.15;1.98;;;;;;;25.26;64.72;98438.13;4960014;28;20105;-88
2023/07/26 04:46:24;;;;;;;3.10;1.92;;;;;;;25.46;64.48;98455.97;4942706;28;20050;-86
2023/07/26 04:48:50;;;;;;;3.83;2.05;;;;;;;25.57;64.72;98459.50;4956938;28;20030;-90
2023/07/26 04:51:15;;;;;;;2.70;1.92;;;;;;;25.25;64.72;98431.03;4965420;28;20558;-92
2023/07/26 04:53:41;;;;;;;5.47;3.53;;;;;;;25.23;65.31;98428.47;4961449;28;20562;-93
2023/07/26 04:56:06;;;;;;;4.70;1.50;;;;;;;25.26;64.29;98400.38;4964675;28;20109;-92
2023/07/26 04:58:33;;;;;;;9.25;2.30;;;;;;;25.49;64.70;98431.41;4968251;28;20039;-93
2023/07/26 05:00:59;;;;;;;2.60;2.05;;;;;;;25.56;63.59;98426.25;4967748;28;20066;-93
2023/07/26 05:03:25;;;;;;;5.72;2.13;;;;;;;25.82;63.84;98436.34;4975794;28;20438;-92
2023/07/26 05:05:51;;;;;;;3.78;2.22;;;;;;;25.81;63.30;98424.72;4965814;28;20057;-93
2023/07/26 05:08:20;;;;;;;4.13;3.13;;;;;;;25.72;62.59;98415.66;4959760;28;20486;-92
2023/07/26 05:10:52;;;;;;;3.20;2.20;;;;;;;25.94;63.05;98442.41;4961272;28;20031;-88
2023/07/26 05:13:19;;;;;;;9.48;3.33;;;;;;;26.23;61.74;98436.84;4955703;28;20027;-88
2023/07/26 05:15:44;;;;;;;2.72;1.75;;;;;;;26.62;60.43;98458.97;4956492;28;21822;-88
2023/07/26 05:18:10;;;;;;;4.15;2.35;;;;;;;26.61;59.73;98432.94;4960565;28;20034;-88
2023/07/26 05:20:37;;;;;;;2.40;1.70;;;;;;;27.15;59.29;98461.78;4962591;28;20039;-87
2023/07/26 05:23:02;;;;;;;3.63;2.17;;;;;;;27.30;57.91;98452.06;4956942;28;20043;-93
2023/07/26 05:25:28;;;;;;;12.25;3.72;;;;;;;27.66;57.04;98460.06;4957224;28;20041;-89
2023/07/26 05:27:57;;;;;;;2.72;1.90;;;;;;;27.62;56.38;98474.97;4953496;28;20042;-93
2023/07/26 05:30:23;;;;;;;7.10;2.97;;;;;;;27.77;55.96;98467.06;4952178;28;20027;-91
2023/07/26 05:32:48;;;;;;;5.45;2.65;;;;;;;27.97;56.06;98489.34;4953397;28;20035;-92
2023/07/26 05:35:14;;;;;;;2.63;1.77;;;;;;;28.36;55.45;98504.19;4954826;28;20023;-91
2023/07/26 05:37:40;;;;;;;5.45;2.42;;;;;;;28.66;53.19;98510.06;4954907;28;20417;-92
2023/07/26 05:40:06;;;;;;;6.88;2.78;;;;;;;28.67;52.72;98496.34;4957306;28;20109;-91
2023/07/26 05:42:32;;;;;;;3.65;2.22;;;;;;;28.70;54.15;98493.28;4963830;28;20031;-92
2023/07/26 05:44:58;;;;;;;6.85;2.58;;;;;;;29.19;53.38;98535.84;4966411;28;20039;-95
2023/07/26 05:47:24;;;;;;;3.33;2.45;;;;;;;29.36;53.01;98522.31;4951883;28;20033;-94
2023/07/26 05:49:50;;;;;;;6.70;2.80;;;;;;;29.52;51.99;98499.69;4963635;28;20072;-94
2023/07/26 05:52:16;;;;;;;4.75;2.85;;;;;;;29.40;50.51;98508.19;4961845;28;20027;-93
2023/07/26 05:54:42;;;;;;;4.10;1.95;;;;;;;29.33;51.17;98506.34;4964725;28;20113;-95
2023/07/26 05:57:07;;;;;;;8.88;2.95;;;;;;;29.42;50.27;98524.31;4963684;28;20078;-94
2023/07/26 05:59:33;;;;;;;5.18;2.25;;;;;;;29.48;50.59;98529.06;4965991;28;20031;-94
2023/07/26 06:01:58;;;;;;;3.78;2.53;;;;;;;29.56;49.59;98520.06;4957009;28;20046;-91
2023/07/26 06:04:25;;;;;;;1.85;1.23;;;;;;;29.92;49.27;98527.78;4960660;28;20186;-91
2023/07/26 06:06:53;;;;;;;4.93;3.05;;;;;;;29.81;49.42;98501.84;4959428;28;20031;-96
2023/07/26 06:09:21;;;;;;;9.15;3.97;;;;;;;30.03;48.98;98502.94;4960811;28;20023;-93
2023/07/26 06:11:46;;;;;;;2.63;1.63;;;;;;;30.08;49.26;98525.00;4962036;28;20126;-88
2023/07/26 06:14:12;;;;;;;3.38;2.25;;;;;;;30.16;48.08;98511.38;4963108;28;20030;-93
2023/07/26 06:16:37;;;;;;;4.40;2.63;;;;;;;30.16;48.64;98503.22;4958953;28;20152;-92
2023/07/26 06:19:03;;;;;;;7.57;3.00;;;;;;;30.18;49.00;98497.59;4960119;28;20022;-92
2023/07/26 06:21:28;;;;;;;6.65;2.22;;;;;;;30.59;47.72;98477.50;4945499;28;20030;-91
2023/07/26 06:23:54;;;;;;;3.88;2.30;;;;;;;31.04;45.45;98505.75;4963315;28;20054;-92
2023/07/26 06:26:20;;;;;;;3.03;2.33;;;;;;;31.38;45.20;98501.69;4961965;28;20027;-94
2023/07/26 06:28:46;;;;;;;3.35;1.83;;;;;;;31.48;44.41;98487.78;4958775;28;20389;-93
2023/07/26 06:31:12;;;;;;;3.65;2.30;;;;;;;31.56;43.63;98477.69;4966558;28;20065;-95
2023/07/26 06:33:37;;;;;;;2.72;1.50;;;;;;;31.80;43.83;98480.31;4946204;28;20145;-93
2023/07/26 06:36:03;;;;;;;4.00;2.25;;;;;;;32.11;43.78;98493.72;4960040;28;20082;-92
2023/07/26 06:38:28;;;;;;;6.20;3.38;;;;;;;31.78;42.87;98483.22;4959090;28;20493;-92
2023/07/26 06:40:54;;;;;;;2.95;2.03;;;;;;;32.03;43.10;98493.81;4955792;28;20122;-89
2023/07/26 06:43:19;;;;;;;4.70;2.65;;;;;;;32.01;43.44;98493.13;4958643;28;20050;-92
2023/07/26 06:45:46;;;;;;;2.63;2.17;;;;;;;31.86;42.17;98455.00;4941687;28;20045;-90
2023/07/26 06:48:12;;;;;;;4.50;2.38;;;;;;;32.26;42.45;98458.25;4954631;28;20085;-93
2023/07/26 06:50:41;;;;;;;3.63;2.88;;;;;;;32.39;41.45;98476.63;4958403;28;20038;-94
2023/07/26 06:53:07;;;;;;;4.25;1.90;;;;;;;32.41;41.91;98455.44;4957738;28;20539;-92
2023/07/26 06:55:33;;;;;;;4.43;2.80;;;;;;;32.81;41.50;98459.47;4957722;28;20039;-94
2023/07/26 06:57:59;;;;;;;4.57;2.35;;;;;;;33.12;40.15;98458.25;4957466;28;20041;-92
2023/07/26 07:00:24;;;;;;;6.70;2.70;;;;;;;33.44;40.54;98457.84;4960322;28;20039;-92
2023/07/26 07:02:57;;;;;;;6.53;2.83;;;;;;;33.26;40.28;98440.09;4964473;28;20031;-91
2023/07/26 07:05:22;;;;;;;6.95;2.80;;;;;;;33.43;40.12;98445.22;4958565;28;20425;-90
2023/07/26 07:07:48;;;;;;;4.70;2.60;;;;;;;33.51;39.90;98404.09;4961211;28;20031;-94
2023/07/26 07:10:14;;;;;;;7.38;2.95;;;;;;;33.52;39.30;98425.75;4964419;28;20051;-92
2023/07/26 07:12:42;;;;;;;5.28;2.47;;;;;;;33.26;39.04;98373.66;4970884;28;20027;-96
2023/07/26 07:15:09;;;;;;;4.10;2.63;;;;;;;33.92;38.89;98432.47;4968319;28;20026;-94
2023/07/26 07:17:34;;;;;;;4.68;1.90;;;;;;;33.87;38.62;98439.38;4970344;28;20072;-96
2023/07/26 07:20:00;;;;;;;3.60;1.50;;;;;;;33.83;38.19;98409.91;4968349;28;20501;-94
2023/07/26 07:22:27;;;;;;;9.40;2.53;;;;;;;34.02;38.30;98436.50;4959767;28;20130;-93
2023/07/26 07:24:53;;;;;;;5.13;3.20;;;;;;;34.39;38.00;98425.28;4973432;28;20035;-95
2023/07/26 07:27:20;;;;;;;4.68;2.85;;;;;;;34.21;38.64;98362.91;4976429;28;20053;-94
2023/07/26 07:29:46;;;;;;;6.97;2.42;;;;;;;34.82;36.93;98424.06;4960143;28;20039;-94
2023/07/26 07:32:17;;;;;;;6.90;2.53;;;;;;;34.91;36.40;98423.66;4970102;28;20027;-95
2023/07/26 07:34:42;;;;;;;4.28;1.95;;;;;;;34.90;35.61;98386.38;4966294;28;20054;-92
2023/07/26 07:37:08;;;;;;;5.78;3.30;;;;;;;35.26;35.44;98407.00;4959363;28;20083;-94
2023/07/26 07:39:34;;;;;;;5.20;2.83;;;;;;;35.07;35.47;98361.28;4978214;28;20039;-95
2023/07/26 07:41:59;;;;;;;11.48;3.67;;;;;;;35.74;36.36;98416.75;4959551;28;20488;-95
2023/07/26 07:44:27;;;;;;;5.93;2.50;;;;;;;35.83;34.62;98399.03;4967898;28;20505;-96
2023/07/26 07:46:53;;;;;;;6.75;3.00;;;;;;;35.92;34.85;98365.88;4957691;28;20027;-95
2023/07/26 07:49:19;;;;;;;5.05;2.33;;;;;;;36.13;34.84;98375.66;4986783;28;20054;-95
2023/07/26 07:51:45;;;;;;;5.22;2.67;;;;;;;36.52;34.16;98412.19;4971860;28;20544;-93
2023/07/26 07:54:13;;;;;;;6.70;2.90;;;;;;;36.14;34.54;98378.19;4971301;28;20378;-95
2023/07/26 07:56:39;;;;;;;2.92;2.08;;;;;;;36.40;34.30;98409.31;4961311;28;20133;-95
2023/07/26 07:59:05;;;;;;;3.47;2.45;;;;;;;36.52;34.36;98368.25;4979516;28;20113;-94
2023/07/26 08:01:32;;;;;;;3.13;2.10;;;;;;;36.59;33.67;98352.56;4948023;28;20032;-91
2023/07/26 08:04:00;;;;;;;6.80;2.35;;;;;;;36.32;33.23;98360.19;4968759;28;20030;-94
2023/07/26 08:06:32;;;;;;;9.43;3.83;;;;;;;36.67;33.43;98385.25;4967177;28;20042;-95
2023/07/26 08:08:58;;;;;;;2.67;2.15;;;;;;;36.97;34.42;98400.22;4950610;28;20460;-94
2023/07/26 08:11:23;;;;;;;5.32;2.55;;;;;;;36.87;32.09;98345.78;4972174;28;20156;-96
2023/07/26 08:13:49;;;;;;;7.05;2.15;;;;;;;36.84;32.39;98391.06;4971979;28;20034;-95
2023/07/26 08:16:17;;;;;;;6.10;2.97;;;;;;;36.52;32.23;98341.63;4969862;28;20045;-94
2023/07/26 08:18:43;;;;;;;4.05;2.10;;;;;;;36.12;34.24;98330.09;4967977;28;20055;-95
2023/07/26 08:21:36;;;;;;;4.93;2.47;;;;;;;36.74;34.47;98374.22;4961331;28;20434;-96
2023/07/26 08:24:07;;;;;;;3.42;1.90;;;;;;;37.08;32.34;98334.38;4969077;28;20062;-93
2023/07/26 08:29:56;;;;;;;5.80;2.75;;;;;;;37.29;32.74;98326.75;4963635;28;20054;-96
2023/07/26 08:32:26;;;;;;;3.95;2.17;;;;;;;37.93;33.41;98374.00;4973846;28;20042;-92
2023/07/26 08:34:51;;;;;;;5.03;2.80;;;;;;;37.96;32.78;98332.28;4961265;28;20031;-92
2023/07/26 08:37:18;;;;;;;4.00;2.45;;;;;;;37.90;30.70;98324.13;4965595;28;20026;-94
2023/07/26 08:39:44;;;;;;;4.57;2.70;;;;;;;38.05;31.22;98353.94;4962742;28;20867;-95
2023/07/26 08:42:11;;;;;;;3.67;2.22;;;;;;;37.58;31.23;98319.63;4966436;28;20082;-94
2023/07/26 08:44:53;;;;;;;2.78;1.98;;;;;;;37.86;31.13;98339.41;4978555;28;20031;-93
2023/07/26 08:47:23;;;;;;;3.95;2.35;;;;;;;37.76;30.97;98298.72;4962816;28;20023;-93
2023/07/26 08:49:49;;;;;;;2.95;1.70;;;;;;;37.98;31.95;98290.75;4969141;28;20042;-94
2023/07/26 08:52:17;;;;;;;4.88;2.45;;;;;;;38.40;32.08;98287.97;4966664;28;20108;-92
2023/07/26 08:54:43;;;;;;;4.70;2.38;;;;;;;38.40;30.23;98282.47;4964130;28;20046;-93
2023/07/26 08:57:11;;;;;;;3.47;1.75;;;;;;;38.33;30.52;98298.28;4951630;28;20477;-92
2023/07/26 08:59:37;;;;;;;3.78;1.70;;;;;;;38.18;30.26;98289.66;4968576;28;20031;-92
2023/07/26 09:02:04;;;;;;;4.30;2.45;;;;;;;37.75;30.99;98281.34;4959078;28;20036;-94
2023/07/26 09:04:44;;;;;;;4.38;2.75;;;;;;;37.78;30.75;98302.06;4962937;28;20041;-96
2023/07/26 09:07:13;;;;;;;3.05;1.90;;;;;;;38.00;30.44;98293.28;4953238;28;20062;-94
2023/07/26 09:09:40;;;;;;;5.35;2.13;;;;;;;38.09;30.94;98276.19;4968391;28;20532;-93
2023/07/26 09:12:06;;;;;;;3.78;2.08;;;;;;;38.26;30.75;98276.34;4942919;28;20045;-93
2023/07/26 09:14:34;;;;;;;6.75;2.80;;;;;;;37.94;31.27;98284.91;4960506;28;20038;-90
2023/07/26 09:17:04;;;;;;;3.78;2.50;;;;;;;38.60;30.32;98290.38;4959797;28;20027;-93
2023/07/26 09:19:32;;;;;;;3.05;2.28;;;;;;;38.82;30.65;98292.56;4957941;28;20429;-90
2023/07/26 09:22:00;;;;;;;7.18;2.97;;;;;;;38.49;29.98;98270.03;4962670;28;20035;-93
2023/07/26 09:24:36;;;;;;;3.97;2.28;;;;;;;38.64;29.87;98290.81;4971366;28;20531;-93
2023/07/26 09:27:12;;;;;;;4.97;2.45;;;;;;;38.38;29.51;98257.09;4964655;28;20042;-91
2023/07/26 09:29:40;;;;;;;2.80;1.48;;;;;;;38.60;28.79;98262.84;4971065;28;20039;-91
2023/07/26 09:32:07;;;;;;;3.40;2.30;;;;;;;38.89;29.81;98278.69;4959759;28;20464;-91
2023/07/26 09:34:32;;;;;;;4.35;2.42;;;;;;;39.13;28.15;98280.34;4969286;28;20145;-93
2023/07/26 09:36:59;;;;;;;12.77;2.72;;;;;;;39.07;28.10;98263.91;4968010;28;20194;-92
2023/07/26 09:39:26;;;;;;;7.93;2.30;;;;;;;39.61;28.26;98294.88;4964616;28;20026;-95
2023/07/26 09:42:06;;;;;;;12.85;2.42;;;;;;;39.33;28.69;98270.81;4964086;28;20524;-92
2023/07/26 09:44:33;;;;;;;2.50;1.88;;;;;;;39.00;28.35;98236.47;4963489;28;20059;-93
2023/07/26 09:46:58;;;;;;;4.93;1.95;;;;;;;39.07;28.21;98269.41;4966386;28;20159;-92
2023/07/26 09:49:27;;;;;;;4.47;1.42;;;;;;;39.16;28.95;98259.72;4958538;28;20038;-92
2023/07/26 09:51:54;;;;;;;3.17;2.40;;;;;;;39.39;27.54;98242.25;4960417;28;20031;-91
2023/07/26 09:54:21;;;;;;;6.45;2.20;;;;;;;39.54;28.69;98250.88;4958304;28;20102;-90
2023/07/26 09:56:47;;;;;;;5.35;2.67;;;;;;;39.89;28.23;98249.03;4957330;28;20038;-90
2023/07/26 09:59:14;;;;;;;8.90;2.10;;;;;;;39.96;27.04;98244.16;4939740;28;20400;-91
2023/07/26 10:01:44;;;;;;;3.95;2.58;;;;;;;40.02;27.30;98248.72;4964308;28;20041;-93
2023/07/26 10:04:15;;;;;;;2.97;2.15;;;;;;;39.61;27.83;98245.22;4955551;28;20101;-92
2023/07/26 10:06:43;;;;;;;5.38;1.98;;;;;;;39.46;28.56;98229.19;4970207;28;20042;-93
2023/07/26 10:09:15;;;;;;;3.13;1.85;;;;;;;39.80;26.90;98221.00;4969524;28;20113;-93
2023/07/26 10:11:43;;;;;;;4.50;2.47;;;;;;;39.26;28.22;98210.31;4972457;28;20034;-93
2023/07/26 10:14:11;;;;;;;4.45;1.88;;;;;;;39.28;29.37;98219.16;4970693;28;20031;-93
2023/07/26 10:16:39;;;;;;;4.03;1.60;;;;;;;39.29;28.34;98200.72;4964295;28;20046;-94
2023/07/26 10:19:06;;;;;;;3.70;1.58;;;;;;;39.53;28.12;98209.72;4968564;28;20124;-95
2023/07/26 10:21:34;;;;;;;4.05;2.42;;;;;;;39.57;28.11;98195.19;4969057;28;20459;-92
2023/07/26 10:24:03;;;;;;;4.65;2.10;;;;;;;39.26;28.29;98185.50;4972886;28;20109;-94
2023/07/26 10:26:34;;;;;;;4.93;2.25;;;;;;;39.33;30.55;98188.97;4969459;28;20137;-93
2023/07/26 10:29:00;;;;;;;3.33;1.90;;;;;;;39.34;28.67;98200.81;4970061;28;20031;-93
2023/07/26 10:31:29;;;;;;;2.88;1.80;;;;;;;39.41;27.49;98218.06;4984585;28;20108;-95
2023/07/26 10:33:57;;;;;;;4.43;2.67;;;;;;;39.74;28.14;98216.47;4975274;28;20550;-93
2023/07/26 10:36:33;;;;;;;3.70;2.10;;;;;;;39.87;27.87;98194.09;4974303;28;20058;-93
2023/07/26 10:39:06;;;;;;;4.18;2.67;;;;;;;39.87;27.58;98201.50;4966113;28;20038;-94
2023/07/26 10:41:34;;;;;;;3.17;1.45;;;;;;;39.80;28.17;98201.69;4964497;28;20047;-92
2023/07/26 10:44:04;;;;;;;2.65;2.05;;;;;;;39.69;27.84;98191.56;4969382;28;20042;-93
2023/07/26 10:46:45;;;;;;;4.88;2.60;;;;;;;39.90;27.20;98188.06;4977979;28;20043;-93
2023/07/26 10:49:20;;;;;;;5.10;3.05;;;;;;;40.01;27.04;98168.94;4962303;28;20504;-85
2023/07/26 10:51:51;;;;;;;4.43;2.03;;;;;;;39.88;27.71;98165.38;4977194;28;20113;-91
2023/07/26 10:54:31;;;;;;;4.05;2.17;;;;;;;40.08;27.32;98173.19;4982271;28;20103;-96
2023/07/26 10:57:27;;;;;;;4.10;2.30;;;;;;;40.12;26.36;98159.72;4980103;28;20035;-93
2023/07/26 11:00:01;;;;;;;4.30;2.42;;;;;;;39.86;26.61;98183.31;4962412;28;20097;-93
2023/07/26 11:02:38;;;;;;;7.22;2.92;;;;;;;39.73;26.38;98185.31;4962886;28;20121;-96
2023/07/26 11:05:06;;;;;;;2.55;1.92;;;;;;;39.85;26.17;98165.06;4965966;28;20079;-93
2023/07/26 11:07:52;;;;;;;4.80;2.22;;;;;;;39.84;26.77;98168.91;4965236;28;20137;-91
2023/07/26 11:10:31;;;;;;;3.63;2.17;;;;;;;40.52;26.89;98152.31;4971271;28;20039;-95
2023/07/26 11:13:18;;;;;;;4.55;2.42;;;;;;;40.69;24.89;98169.69;4965733;28;20039;-90
2023/07/26 11:15:50;;;;;;;3.08;1.63;;;;;;;40.47;26.03;98157.78;4958826;28;20034;-89
2023/07/26 11:18:19;;;;;;;5.10;2.08;;;;;;;40.38;24.51;98122.28;4940855;28;20074;-93
2023/07/26 11:20:49;;;;;;;2.42;1.98;;;;;;;40.52;24.68;98155.06;4958875;28;20031;-93
2023/07/26 11:23:21;;;;;;;4.65;2.00;;;;;;;40.35;24.03;98153.19;4940556;28;20035;-91
2023/07/26 11:25:48;;;;;;;5.00;2.85;;;;;;;40.41;26.16;98116.25;4956453;28;20517;-89
2023/07/26 11:28:15;;;;;;;12.10;2.65;;;;;;;40.70;25.32;98131.84;4955522;28;20094;-90
2023/07/26 11:30:49;;;;;;;3.83;2.10;;;;;;;40.59;23.54;98122.56;4958485;28;20027;-94
2023/07/26 11:33:35;;;;;;;7.30;1.80;;;;;;;40.51;26.26;98115.56;4965838;28;20042;-94
2023/07/26 11:36:03;;;;;;;3.17;1.83;;;;;;;40.51;23.91;98104.53;4959618;28;20037;-92
2023/07/26 11:38:31;;;;;;;3.72;1.95;;;;;;;40.36;23.26;98098.75;4951445;28;20038;-93